Time;durP1;ratioP1;P1;durP2;ratioP2;P2;SDS_P1;SDS_P2;PMS_P1;PMS_P2;Temp;Humidity;BMP_temperature;BMP_pressure;BME280_temperature;BME280_humidity;BME280_pressure;Samples;Min_cycle;Max_cycle;Signal;HPM_P1;HPM_P2
2023/09/27 00:00:41;;;;;;;21.08;14.85;;;;;;;;;;5008759;28;20053;-65
2023/09/27 00:03:08;;;;;;;21.05;14.00;;;;;;;;;;4990941;28;20050;-65
2023/09/27 00:05:34;;;;;;;16.88;14.77;;;15.60;99.90;;;;;;5008757;28;20459;-65
2023/09/27 00:08:00;;;;;;;18.33;15.15;;;15.70;99.90;;;;;;4990874;28;20513;-65
2023/09/27 00:10:27;;;;;;;19.85;14.85;;;;;;;;;;4990798;28;20069;-65
2023/09/27 00:12:52;;;;;;;24.45;14.70;;;;;;;;;;4991304;28;20046;-65
2023/09/27 00:15:18;;;;;;;19.00;15.07;;;15.50;99.90;;;;;;5007073;28;20033;-65
2023/09/27 00:17:44;;;;;;;17.02;13.30;;;;;;;;;;5008216;28;20041;-65
2023/09/27 00:20:13;;;;;;;19.27;14.63;;;15.40;99.90;;;;;;4990613;28;20038;-65
2023/09/27 00:22:39;;;;;;;21.55;14.98;;;;;;;;;;4990733;28;20045;-65
2023/09/27 00:25:07;;;;;;;19.35;16.00;;;15.50;99.90;;;;;;5008408;28;20052;-65
2023/09/27 00:27:33;;;;;;;18.58;13.82;;;15.60;99.90;;;;;;5008312;28;20046;-65
2023/09/27 00:29:59;;;;;;;18.80;13.52;;;15.40;99.90;;;;;;4990463;28;20045;-65
2023/09/27 00:32:25;;;;;;;21.73;14.15;;;;;;;;;;5008193;28;20046;-65
2023/09/27 00:34:51;;;;;;;18.45;13.95;;;;;;;;;;4990239;28;20149;-65
2023/09/27 00:37:17;;;;;;;19.25;14.98;;;;;;;;;;5008484;28;20072;-65
2023/09/27 00:39:43;;;;;;;23.77;14.82;;;;;;;;;;5007749;28;20082;-65
2023/09/27 00:42:09;;;;;;;19.55;16.48;;;15.30;99.90;;;;;;4974424;28;20065;-65
2023/09/27 00:44:35;;;;;;;21.48;15.45;;;;;;;;;;4990354;28;20412;-65
2023/09/27 00:47:02;;;;;;;20.92;15.25;;;15.30;99.90;;;;;;4989956;28;20053;-65
2023/09/27 00:49:27;;;;;;;22.35;14.75;;;15.40;99.90;;;;;;5006212;28;20104;-65
2023/09/27 00:51:53;;;;;;;19.25;14.65;;;15.40;99.90;;;;;;5007924;28;20041;-65
2023/09/27 00:54:19;;;;;;;17.88;14.55;;;15.30;99.90;;;;;;4990184;28;20044;-65
2023/09/27 00:56:47;;;;;;;21.92;15.73;;;15.50;99.90;;;;;;5008146;28;20541;-65
2023/09/27 00:59:14;;;;;;;20.33;15.75;;;15.30;99.90;;;;;;4988833;28;20530;-65
2023/09/27 01:01:41;;;;;;;20.92;14.27;;;15.20;99.90;;;;;;4985178;28;20510;-65
2023/09/27 01:04:08;;;;;;;22.23;15.45;;;15.30;99.90;;;;;;4970872;28;20121;-65
2023/09/27 01:06:34;;;;;;;22.67;15.63;;;15.10;99.90;;;;;;4988262;28;20097;-65
2023/09/27 01:08:59;;;;;;;19.00;14.70;;;15.00;99.90;;;;;;4970905;28;20125;-65
2023/09/27 01:11:26;;;;;;;20.13;14.82;;;;;;;;;;4988325;28;20096;-65
2023/09/27 01:13:51;;;;;;;20.58;14.98;;;15.00;99.90;;;;;;4970503;28;20052;-65
2023/09/27 01:16:17;;;;;;;21.08;16.92;;;;;;;;;;4970980;28;20489;-65
2023/09/27 01:18:43;;;;;;;20.65;15.02;;;;;;;;;;4970426;28;20478;-65
2023/09/27 01:21:09;;;;;;;21.45;16.42;;;;;;;;;;4970790;28;20141;-65
2023/09/27 01:23:38;;;;;;;20.50;16.60;;;15.20;99.90;;;;;;4984920;28;20046;-65
2023/09/27 01:26:07;;;;;;;20.75;15.55;;;14.90;99.90;;;;;;4986240;28;20046;-65
2023/09/27 01:28:33;;;;;;;19.95;16.48;;;15.00;99.90;;;;;;4970417;28;20768;-65
2023/09/27 01:30:59;;;;;;;19.10;14.82;;;;;;;;;;4987596;28;20057;-65
2023/09/27 01:33:25;;;;;;;21.38;14.93;;;14.90;99.90;;;;;;4969671;28;20038;-65
2023/09/27 01:35:51;;;;;;;18.88;14.27;;;15.60;99.90;;;;;;4987273;28;20537;-65
2023/09/27 01:38:17;;;;;;;17.80;15.00;;;;;;;;;;4987369;28;20137;-65
2023/09/27 01:40:45;;;;;;;20.27;15.60;;;14.50;99.90;;;;;;4969835;28;20061;-65
2023/09/27 01:43:11;;;;;;;20.67;16.67;;;14.50;99.90;;;;;;4969812;28;20050;-65
2023/09/27 01:45:37;;;;;;;23.00;16.45;;;;;;;;;;4987239;28;20074;-65
2023/09/27 01:48:04;;;;;;;23.27;17.10;;;14.60;99.90;;;;;;4986782;28;20077;-65
2023/09/27 01:50:33;;;;;;;19.13;14.70;;;14.60;99.90;;;;;;4969302;28;20042;-65
2023/09/27 01:52:59;;;;;;;18.00;14.95;;;14.40;99.90;;;;;;4969257;28;20074;-65
2023/09/27 01:55:25;;;;;;;19.02;14.60;;;14.50;99.90;;;;;;4969626;28;20038;-65
2023/09/27 01:57:51;;;;;;;17.73;14.48;;;;;;;;;;4979984;28;20069;-65
2023/09/27 02:00:18;;;;;;;23.05;17.77;;;14.60;99.90;;;;;;4986320;28;20045;-65
2023/09/27 02:02:47;;;;;;;24.00;18.70;;;14.70;99.90;;;;;;5001010;28;20692;-65
2023/09/27 02:05:13;;;;;;;22.85;18.50;;;;;;;;;;4984323;28;21051;-65
2023/09/27 02:07:39;;;;;;;22.60;17.85;;;14.40;99.90;;;;;;5002138;28;20405;-65
2023/09/27 02:10:09;;;;;;;22.65;16.35;;;14.60;99.90;;;;;;5006107;28;20132;-65
2023/09/27 02:12:39;;;;;;;20.83;15.65;;;14.70;99.90;;;;;;5006342;28;20046;-65
2023/09/27 02:15:09;;;;;;;20.25;16.35;;;14.60;99.90;;;;;;4971853;28;20038;-65
2023/09/27 02:17:35;;;;;;;20.63;16.45;;;14.40;99.90;;;;;;4988292;28;20085;-65
2023/09/27 02:20:06;;;;;;;22.05;17.02;;;14.40;99.90;;;;;;4988232;28;20840;-65
2023/09/27 02:22:32;;;;;;;20.88;16.10;;;;;;;;;;4988389;28;20583;-65
2023/09/27 02:24:58;;;;;;;24.95;18.60;;;;;;;;;;5005837;28;20050;-65
2023/09/27 02:27:25;;;;;;;23.98;17.85;;;;;;;;;;4988221;28;20056;-65
2023/09/27 02:29:51;;;;;;;21.50;17.45;;;14.70;99.90;;;;;;5006134;28;20535;-65
2023/09/27 02:32:17;;;;;;;22.45;16.83;;;;;;;;;;5005827;28;20064;-65
2023/09/27 02:34:44;;;;;;;23.38;15.55;;;;;;;;;;4988456;28;20089;-65
2023/09/27 02:37:10;;;;;;;22.58;16.17;;;;;;;;;;4986897;28;20061;-65
2023/09/27 02:39:36;;;;;;;19.45;15.55;;;;;;;;;;4988104;28;20133;-65
2023/09/27 02:42:03;;;;;;;19.17;16.30;;;14.40;99.90;;;;;;4988175;28;20555;-65
2023/09/27 02:44:29;;;;;;;20.80;16.23;;;;;;;;;;4985789;28;20041;-65
2023/09/27 02:46:55;;;;;;;22.50;17.05;;;;;;;;;;4988110;28;20056;-65
2023/09/27 02:49:21;;;;;;;21.55;16.50;;;14.40;99.90;;;;;;4988239;28;20042;-65
2023/09/27 02:51:47;;;;;;;21.77;16.58;;;;;;;;;;4988166;28;20120;-65
2023/09/27 02:54:14;;;;;;;22.48;16.33;;;14.30;99.90;;;;;;5005788;28;20049;-65
2023/09/27 02:56:40;;;;;;;22.48;16.05;;;14.60;99.90;;;;;;5005863;28;20042;-65
2023/09/27 02:59:06;;;;;;;22.63;16.63;;;14.30;99.90;;;;;;4986704;28;20065;-65
2023/09/27 03:01:32;;;;;;;26.42;17.50;;;;;;;;;;5005697;28;20046;-65
2023/09/27 03:03:58;;;;;;;21.33;16.10;;;14.30;99.90;;;;;;4988423;28;20590;-65
2023/09/27 03:06:24;;;;;;;21.25;16.38;;;;;;;;;;5005607;28;20220;-65
2023/09/27 03:08:50;;;;;;;21.08;16.95;;;14.10;99.90;;;;;;4988100;28;20050;-65
2023/09/27 03:11:17;;;;;;;23.08;16.77;;;;;;;;;;5005594;28;20516;-65
2023/09/27 03:13:43;;;;;;;19.77;16.48;;;14.10;99.90;;;;;;4987925;28;20092;-65
2023/09/27 03:16:10;;;;;;;22.42;17.10;;;;;;;;;;4988047;28;20049;-65
2023/09/27 03:18:36;;;;;;;23.52;15.55;;;14.20;99.90;;;;;;5006019;28;20045;-65
2023/09/27 03:21:02;;;;;;;24.25;18.23;;;;;;;;;;5006139;28;20046;-65
2023/09/27 03:23:28;;;;;;;23.92;16.20;;;14.00;99.90;;;;;;4987872;28;20050;-65
2023/09/27 03:25:56;;;;;;;23.02;16.23;;;14.30;99.90;;;;;;5005721;28;20712;-65
2023/09/27 03:28:22;;;;;;;20.83;15.90;;;14.20;99.90;;;;;;5005777;28;20038;-65
2023/09/27 03:30:48;;;;;;;19.95;15.27;;;;;;;;;;5005886;28;20034;-65
2023/09/27 03:33:14;;;;;;;23.65;16.95;;;;;;;;;;4987981;28;20049;-65
2023/09/27 03:35:41;;;;;;;26.92;17.83;;;14.30;99.90;;;;;;4987460;28;20084;-65
2023/09/27 03:38:07;;;;;;;19.92;16.40;;;;;;;;;;5005373;28;20045;-65
2023/09/27 03:40:33;;;;;;;21.92;16.33;;;;;;;;;;4985399;28;20050;-65
2023/09/27 03:42:59;;;;;;;22.05;18.23;;;14.20;99.90;;;;;;5002801;28;20037;-65
2023/09/27 03:45:25;;;;;;;23.10;17.00;;;;;;;;;;4978373;28;20821;-65
2023/09/27 03:47:51;;;;;;;20.13;16.00;;;;;;;;;;4987744;28;20452;-65
2023/09/27 03:50:17;;;;;;;22.90;17.15;;;14.10;99.90;;;;;;5008758;28;20034;-65
2023/09/27 03:52:43;;;;;;;22.00;16.35;;;14.30;99.90;;;;;;4991213;28;20038;-65
2023/09/27 03:55:09;;;;;;;23.27;17.70;;;;;;;;;;5008625;28;20617;-65
2023/09/27 03:57:36;;;;;;;22.85;17.27;;;;;;;;;;5008188;28;20517;-65
2023/09/27 04:00:06;;;;;;;23.77;16.92;;;;;;;;;;4990904;28;20088;-65
2023/09/27 04:02:32;;;;;;;18.85;15.00;;;;;;;;;;4990803;28;20152;-65
2023/09/27 04:04:58;;;;;;;21.23;15.70;;;14.20;99.90;;;;;;5008936;28;20144;-65
2023/09/27 04:07:24;;;;;;;21.60;16.92;;;;;;;;;;5008566;28;20038;-65
2023/09/27 04:09:50;;;;;;;19.77;15.48;;;;;;;;;;5008360;28;20046;-65
2023/09/27 04:12:16;;;;;;;17.10;14.57;;;;;;;;;;4990507;28;20042;-65
2023/09/27 04:14:42;;;;;;;19.60;15.75;;;;;;;;;;4990458;28;20082;-65
2023/09/27 04:17:08;;;;;;;19.30;15.50;;;13.80;99.90;;;;;;4990585;28;20086;-65
2023/09/27 04:19:34;;;;;;;20.70;15.45;;;;;;;;;;4974329;28;20053;-65
2023/09/27 04:22:00;;;;;;;20.67;16.00;;;;;;;;;;5006175;28;20045;-65
2023/09/27 04:24:26;;;;;;;20.23;17.20;;;13.70;99.90;;;;;;5008333;28;20042;-65
2023/09/27 04:26:53;;;;;;;19.00;15.48;;;13.50;99.90;;;;;;5005177;28;20088;-65
2023/09/27 04:29:19;;;;;;;23.70;17.63;;;;;;;;;;5006961;28;20042;-65
2023/09/27 04:31:45;;;;;;;25.88;19.13;;;;;;;;;;4988443;28;20045;-65
2023/09/27 04:34:11;;;;;;;24.40;18.60;;;;;;;;;;4989872;28;20085;-65
2023/09/27 04:36:37;;;;;;;25.20;19.23;;;;;;;;;;4989851;28;20046;-65
2023/09/27 04:39:11;;;;;;;26.73;20.88;;;13.80;99.90;;;;;;4989931;28;20053;-65
2023/09/27 04:41:37;;;;;;;28.77;19.85;;;;;;;;;;4988050;28;20417;-65
2023/09/27 04:44:03;;;;;;;28.77;20.65;;;;;;;;;;4985309;28;20073;-65
2023/09/27 04:46:29;;;;;;;28.05;21.00;;;;;;;;;;4989959;28;20046;-65
2023/09/27 04:48:55;;;;;;;23.52;18.88;;;;;;;;;;4989879;28;20038;-65
2023/09/27 04:51:21;;;;;;;23.23;17.58;;;;;;;;;;5007652;28;20148;-65
2023/09/27 04:53:47;;;;;;;25.17;20.05;;;;;;;;;;5007376;28;20045;-65
2023/09/27 04:56:13;;;;;;;27.25;20.23;;;;;;;;;;4989372;28;20497;-66
2023/09/27 04:58:40;;;;;;;23.60;20.85;;;13.70;99.90;;;;;;4989666;28;20636;-65
2023/09/27 05:01:09;;;;;;;23.13;19.15;;;13.60;99.90;;;;;;5006751;28;20382;-65
2023/09/27 05:03:35;;;;;;;26.38;20.67;;;;;;;;;;4989714;28;20436;-65
2023/09/27 05:06:02;;;;;;;23.90;19.52;;;13.50;99.90;;;;;;4989413;28;20054;-65
2023/09/27 05:08:28;;;;;;;21.70;17.52;;;;;;;;;;4990288;28;20045;-65
2023/09/27 05:10:55;;;;;;;25.77;18.88;;;;;;;;;;4989871;28;20053;-65
2023/09/27 05:13:21;;;;;;;19.35;16.50;;;;;;;;;;5006159;28;20045;-65
2023/09/27 05:15:48;;;;;;;23.15;17.38;;;13.50;99.90;;;;;;5007530;28;20531;-65
2023/09/27 05:18:13;;;;;;;24.55;17.70;;;13.10;99.90;;;;;;5007205;28;20405;-65
2023/09/27 05:20:40;;;;;;;25.70;17.17;;;;;;;;;;4989664;28;20041;-65
2023/09/27 05:23:05;;;;;;;20.27;17.58;;;;;;;;;;5007207;28;20037;-65
2023/09/27 05:25:32;;;;;;;23.25;17.73;;;;;;;;;;4989630;28;20046;-65
2023/09/27 05:27:58;;;;;;;22.77;19.15;;;;;;;;;;4982809;28;20049;-65
2023/09/27 05:30:24;;;;;;;29.23;21.00;;;;;;;;;;4989562;28;20042;-65
2023/09/27 05:32:50;;;;;;;26.15;18.05;;;;;;;;;;4988758;28;20045;-65
2023/09/27 05:35:16;;;;;;;23.38;17.88;;;;;;;;;;5006526;28;20087;-64
2023/09/27 05:37:42;;;;;;;21.40;18.60;;;;;;;;;;5007007;28;20049;-64
2023/09/27 05:40:10;;;;;;;25.05;18.30;;;12.80;99.90;;;;;;4988998;28;20056;-65
2023/09/27 05:42:37;;;;;;;27.65;20.80;;;;;;;;;;5006343;28;20037;-65
2023/09/27 05:45:04;;;;;;;27.05;19.80;;;;;;;;;;4988868;28;20046;-64
2023/09/27 05:47:30;;;;;;;32.08;24.50;;;13.00;99.90;;;;;;4988658;28;20050;-65
2023/09/27 05:49:57;;;;;;;29.08;22.38;;;;;;;;;;5006595;28;20421;-65
2023/09/27 05:52:23;;;;;;;34.85;25.20;;;;;;;;;;5006419;28;20279;-65
2023/09/27 05:54:51;;;;;;;34.10;26.80;;;;;;;;;;4972733;28;20042;-65
2023/09/27 05:57:17;;;;;;;38.92;26.63;;;;;;;;;;4988259;28;20070;-64
2023/09/27 05:59:46;;;;;;;32.78;26.33;;;;;;;;;;4988468;28;20049;-64
2023/09/27 06:02:16;;;;;;;31.48;24.63;;;;;;;;;;4988149;28;20056;-65
2023/09/27 06:04:46;;;;;;;33.97;24.00;;;13.40;99.90;;;;;;4988665;28;20053;-64
2023/09/27 06:07:13;;;;;;;34.90;23.95;;;13.30;99.90;;;;;;4988288;28;20049;-65
2023/09/27 06:09:40;;;;;;;34.70;25.17;;;;;;;;;;4984745;28;20041;-65
2023/09/27 06:12:06;;;;;;;36.35;26.25;;;;;;;;;;5004600;28;20046;-65
2023/09/27 06:14:32;;;;;;;35.28;27.02;;;;;;;;;;5005785;28;20050;-64
2023/09/27 06:16:59;;;;;;;35.47;25.95;;;;;;;;;;4988255;28;20056;-64
2023/09/27 06:19:25;;;;;;;42.70;28.38;;;;;;;;;;5006109;28;20124;-65
2023/09/27 06:21:51;;;;;;;33.03;25.52;;;;;;;;;;5005999;28;20045;-65
2023/09/27 06:24:17;;;;;;;37.38;27.90;;;;;;;;;;4986703;28;20508;-64
2023/09/27 06:26:43;;;;;;;38.70;26.95;;;13.80;99.90;;;;;;5002280;28;20050;-64
2023/09/27 06:29:09;;;;;;;40.03;29.02;;;;;;;;;;5002854;28;20057;-65
2023/09/27 06:31:35;;;;;;;35.95;27.38;;;13.80;99.90;;;;;;5005194;28;20034;-65
2023/09/27 06:34:01;;;;;;;33.80;26.60;;;;;;;;;;5005530;28;20449;-66
2023/09/27 06:36:29;;;;;;;35.50;27.45;;;;;;;;;;5005586;28;20053;-65
2023/09/27 06:38:56;;;;;;;41.85;28.88;;;13.60;99.90;;;;;;4988070;28;20507;-65
2023/09/27 06:41:22;;;;;;;39.67;28.55;;;;;;;;;;4968901;28;20075;-66
2023/09/27 06:43:48;;;;;;;38.75;28.77;;;;;;;;;;4987075;28;20045;-66
2023/09/27 06:46:15;;;;;;;33.50;25.88;;;13.80;99.90;;;;;;4987341;28;20132;-66
2023/09/27 06:48:41;;;;;;;33.67;26.65;;;;;;;;;;5005444;28;20516;-66
2023/09/27 06:51:07;;;;;;;34.50;27.15;;;;;;;;;;5005487;28;20540;-66
2023/09/27 06:53:33;;;;;;;34.03;25.85;;;14.00;99.90;;;;;;4987395;28;20125;-65
2023/09/27 06:55:59;;;;;;;32.50;25.73;;;14.00;99.90;;;;;;4987442;28;21314;-65
2023/09/27 06:58:25;;;;;;;32.40;24.88;;;14.10;99.90;;;;;;4987654;28;20046;-65
2023/09/27 07:00:54;;;;;;;28.42;23.50;;;14.00;99.90;;;;;;4987202;28;20050;-66
2023/09/27 07:03:24;;;;;;;32.17;25.23;;;;;;;;;;4987436;28;20046;-66
2023/09/27 07:05:51;;;;;;;40.88;27.02;;;;;;;;;;5005374;28;20069;-66
2023/09/27 07:08:17;;;;;;;36.55;28.00;;;;;;;;;;5005466;28;20053;-66
2023/09/27 07:10:44;;;;;;;36.83;27.63;;;;;;;;;;4987147;28;20045;-65
2023/09/27 07:13:09;;;;;;;37.40;26.67;;;14.50;99.90;;;;;;4969755;28;20046;-65
2023/09/27 07:15:36;;;;;;;36.10;27.35;;;;;;;;;;5005524;28;20044;-65
2023/09/27 07:18:03;;;;;;;37.88;26.58;;;;;;;;;;4987706;28;20053;-65
2023/09/27 07:20:34;;;;;;;36.97;28.92;;;;;;;;;;5005011;28;20052;-65
2023/09/27 07:23:03;;;;;;;35.45;25.63;;;14.70;99.90;;;;;;4987831;28;20046;-66
2023/09/27 07:25:32;;;;;;;37.53;28.35;;;;;;;;;;4988670;28;20068;-66
2023/09/27 07:27:59;;;;;;;32.28;26.88;;;;;;;;;;4991109;28;20752;-65
2023/09/27 07:30:25;;;;;;;34.45;27.08;;;;;;;;;;4990600;28;20120;-66
2023/09/27 07:32:51;;;;;;;33.45;26.55;;;;;;;;;;4990872;28;20046;-65
2023/09/27 07:35:18;;;;;;;36.33;27.17;;;14.70;99.90;;;;;;4990844;28;20046;-66
2023/09/27 07:37:44;;;;;;;36.50;25.67;;;;;;;;;;5008436;28;20096;-66
2023/09/27 07:40:12;;;;;;;35.70;27.15;;;14.70;99.90;;;;;;5008632;28;20052;-65
2023/09/27 07:42:40;;;;;;;34.70;28.02;;;14.80;99.90;;;;;;4990808;28;20528;-65
2023/09/27 07:45:07;;;;;;;35.03;27.67;;;14.90;99.90;;;;;;5008557;28;20063;-66
2023/09/27 07:47:33;;;;;;;34.22;27.77;;;;;;;;;;4991107;28;20058;-66
2023/09/27 07:49:59;;;;;;;34.95;27.05;;;;;;;;;;4990481;28;20041;-66
2023/09/27 07:52:25;;;;;;;36.03;28.00;;;;;;;;;;4990237;28;20076;-66
2023/09/27 07:54:51;;;;;;;36.55;28.35;;;;;;;;;;5008944;28;20046;-67
2023/09/27 07:57:17;;;;;;;37.25;27.50;;;15.00;99.90;;;;;;5006252;28;20097;-67
2023/09/27 07:59:43;;;;;;;34.13;27.52;;;;;;;;;;4985732;28;20085;-67
2023/09/27 08:02:09;;;;;;;36.95;26.75;;;;;;;;;;4989929;28;20041;-63
2023/09/27 08:04:39;;;;;;;33.42;25.33;;;15.60;99.90;;;;;;4984436;28;20473;-65
2023/09/27 08:07:05;;;;;;;37.22;27.08;;;;;;;;;;4989889;28;20042;-65
2023/09/27 08:09:38;;;;;;;33.28;25.15;;;16.30;99.90;;;;;;4986492;28;20045;-67
2023/09/27 08:12:04;;;;;;;32.00;25.45;;;;;;;;;;5006803;28;20050;-67
2023/09/27 08:14:30;;;;;;;34.05;26.55;;;;;;;;;;4990112;28;20046;-66
2023/09/27 08:16:55;;;;;;;33.10;23.63;;;16.90;99.90;;;;;;4990528;28;20493;-67
2023/09/27 08:19:21;;;;;;;34.30;24.38;;;17.10;99.90;;;;;;4989282;28;20100;-67
2023/09/27 08:21:47;;;;;;;30.67;22.08;;;;;;;;;;4989992;28;20046;-66
2023/09/27 08:24:13;;;;;;;31.65;22.70;;;17.40;99.90;;;;;;4990139;28;20514;-67
2023/09/27 08:26:39;;;;;;;29.65;23.48;;;;;;;;;;4973619;28;20057;-66
2023/09/27 08:29:05;;;;;;;29.90;23.25;;;;;;;;;;5008079;28;20056;-66
2023/09/27 08:31:34;;;;;;;30.50;21.20;;;17.50;99.90;;;;;;4990182;28;20409;-67
2023/09/27 08:34:00;;;;;;;31.63;23.55;;;;;;;;;;4989685;28;20811;-67
2023/09/27 08:36:26;;;;;;;33.15;22.83;;;17.70;99.90;;;;;;4988760;28;20045;-67
2023/09/27 08:38:51;;;;;;;32.20;23.90;;;17.80;99.90;;;;;;4990757;28;20508;-66
2023/09/27 08:41:18;;;;;;;27.55;21.65;;;17.80;99.90;;;;;;4990223;28;20069;-66
2023/09/27 08:43:44;;;;;;;26.02;21.08;;;17.90;99.90;;;;;;4990372;28;20145;-67
2023/09/27 08:46:11;;;;;;;28.67;21.13;;;;;;;;;;4998492;28;20054;-65
2023/09/27 08:48:37;;;;;;;32.65;22.50;;;18.00;99.90;;;;;;5007713;28;20515;-66
2023/09/27 08:51:04;;;;;;;30.17;20.90;;;18.20;99.90;;;;;;4989966;28;20370;-66
2023/09/27 08:53:32;;;;;;;26.27;18.88;;;;;;;;;;5007526;28;20119;-65
2023/09/27 08:55:58;;;;;;;26.50;19.60;;;18.80;99.90;;;;;;4989427;28;20129;-66
2023/09/27 08:58:25;;;;;;;25.75;17.85;;;19.10;99.90;;;;;;4989947;28;20058;-66
2023/09/27 09:00:52;;;;;;;26.10;17.42;;;19.30;99.90;;;;;;4989783;28;20453;-65
2023/09/27 09:03:18;;;;;;;22.33;17.45;;;19.40;99.90;;;;;;4989786;28;20123;-67
2023/09/27 09:05:45;;;;;;;20.88;15.68;;;19.90;99.90;;;;;;4983676;28;20485;-66
2023/09/27 09:08:11;;;;;;;21.17;16.15;;;20.60;99.90;;;;;;4989437;28;20034;-66
2023/09/27 09:10:37;;;;;;;20.77;14.40;;;21.10;99.90;;;;;;4988816;28;20057;-66
2023/09/27 09:13:04;;;;;;;22.23;15.68;;;21.80;99.90;;;;;;4989228;28;20175;-66
2023/09/27 09:15:40;;;;;;;18.17;12.23;;;22.80;99.90;;;;;;5005203;28;20638;-66
2023/09/27 09:18:10;;;;;;;16.48;11.32;;;22.80;99.90;;;;;;5003806;28;20041;-67
2023/09/27 09:20:51;;;;;;;15.73;11.25;;;23.50;99.90;;;;;;5002490;28;20053;-66
2023/09/27 09:23:31;;;;;;;15.93;10.23;;;24.20;99.90;;;;;;4998817;28;20073;-66
2023/09/27 09:25:57;;;;;;;11.85;9.15;;;23.10;99.90;;;;;;4986651;28;20045;-65
2023/09/27 09:28:24;;;;;;;13.68;7.80;;;22.80;99.90;;;;;;5006171;28;20041;-65
2023/09/27 09:30:50;;;;;;;16.00;9.05;;;24.10;99.90;;;;;;4989063;28;20155;-66
2023/09/27 09:33:20;;;;;;;10.18;7.25;;;24.00;99.90;;;;;;4989338;28;20049;-65
2023/09/27 09:35:47;;;;;;;15.50;9.40;;;23.30;99.90;;;;;;4988944;28;20038;-66
2023/09/27 09:38:21;;;;;;;13.57;9.30;;;21.80;99.90;;;;;;4989116;28;20037;-65
2023/09/27 09:40:56;;;;;;;13.25;9.50;;;21.40;99.90;;;;;;4986977;28;20130;-65
2023/09/27 09:43:33;;;;;;;18.05;10.32;;;20.80;99.90;;;;;;4989147;28;20042;-65
2023/09/27 09:46:00;;;;;;;16.35;10.27;;;21.20;99.90;;;;;;5005773;28;20136;-66
2023/09/27 09:48:27;;;;;;;16.73;9.50;;;22.80;99.90;;;;;;4988434;28;20776;-66
2023/09/27 09:51:01;;;;;;;14.00;10.07;;;22.50;99.90;;;;;;4972522;28;20052;-65
2023/09/27 09:53:28;;;;;;;;;;;24.20;99.90;;;;;;4989202;28;20057;-65
2023/09/27 09:55:59;;;;;;;16.40;10.65;;;23.80;99.90;;;;;;5006250;28;20016;-66
2023/09/27 09:58:54;;;;;;;16.08;9.48;;;23.20;99.90;;;;;;4988290;28;20054;-66
2023/09/27 10:01:21;;;;;;;15.23;8.55;;;22.10;99.90;;;;;;4988395;28;20532;-65
2023/09/27 10:03:49;;;;;;;11.43;5.90;;;21.70;99.90;;;;;;4981742;28;20117;-65
2023/09/27 10:06:20;;;;;;;11.02;5.32;;;21.40;99.90;;;;;;4988059;28;20512;-65
2023/09/27 10:08:47;;;;;;;8.30;4.20;;;21.10;99.90;;;;;;4987819;28;20077;-65
2023/09/27 10:11:13;;;;;;;9.90;4.55;;;20.90;99.90;;;;;;4983246;28;20042;-65
2023/09/27 10:13:41;;;;;;;8.80;4.90;;;20.80;99.90;;;;;;5005926;28;20816;-65
2023/09/27 10:16:08;;;;;;;13.57;4.97;;;20.70;99.90;;;;;;5005870;28;20077;-66
2023/09/27 10:18:39;;;;;;;9.27;4.57;;;20.60;99.90;;;;;;4972544;28;20049;-65
2023/09/27 10:21:05;;;;;;;10.23;5.50;;;;;;;;;;4988275;28;20048;-65
2023/09/27 10:23:58;;;;;;;11.40;5.60;;;20.50;99.90;;;;;;4988147;28;20041;-65
2023/09/27 10:26:27;;;;;;;11.32;5.25;;;20.30;99.90;;;;;;4984802;28;20065;-65
2023/09/27 10:29:06;;;;;;;13.40;5.45;;;20.40;99.90;;;;;;4988001;28;20049;-64
2023/09/27 10:31:33;;;;;;;10.75;4.90;;;20.20;99.90;;;;;;4971946;28;20569;-65
2023/09/27 10:33:59;;;;;;;9.10;5.47;;;20.20;99.90;;;;;;5005694;28;20092;-65
2023/09/27 10:36:24;;;;;;;13.60;5.63;;;20.20;99.90;;;;;;5005897;28;20038;-65
2023/09/27 10:38:50;;;;;;;12.02;6.25;;;20.10;99.90;;;;;;5005578;28;20048;-65
2023/09/27 10:41:44;;;;;;;14.38;6.28;;;20.10;99.90;;;;;;4987814;28;20534;-65
2023/09/27 10:44:10;;;;;;;16.70;7.07;;;20.20;99.90;;;;;;4983917;28;20042;-65
2023/09/27 10:46:42;;;;;;;12.18;6.80;;;20.20;99.90;;;;;;4987764;28;20045;-65
2023/09/27 10:49:08;;;;;;;13.77;7.30;;;;;;;;;;5003166;28;20421;-64
2023/09/27 10:51:34;;;;;;;12.88;6.35;;;20.10;99.90;;;;;;4987909;28;20444;-65
2023/09/27 10:54:04;;;;;;;12.13;6.28;;;20.20;99.90;;;;;;4987550;28;20038;-65
2023/09/27 10:56:30;;;;;;;10.48;6.03;;;;;;;;;;5004825;28;20045;-65
2023/09/27 10:58:56;;;;;;;14.10;7.07;;;20.20;99.90;;;;;;5007208;28;20056;-65
2023/09/27 11:01:23;;;;;;;10.75;5.88;;;20.30;99.90;;;;;;4991384;28;20041;-65
2023/09/27 11:03:59;;;;;;;10.27;6.07;;;20.20;99.90;;;;;;4991539;28;20053;-65
2023/09/27 11:06:25;;;;;;;9.98;5.03;;;20.20;99.90;;;;;;4991210;28;20508;-67
2023/09/27 11:08:50;;;;;;;8.63;4.50;;;20.10;99.90;;;;;;4991235;28;20046;-65
2023/09/27 11:11:16;;;;;;;10.98;5.38;;;20.20;99.90;;;;;;5009278;28;20049;-65
2023/09/27 11:13:43;;;;;;;10.35;5.05;;;20.20;99.90;;;;;;4991417;28;20092;-65
2023/09/27 11:16:18;;;;;;;13.18;5.30;;;20.20;99.90;;;;;;5009241;28;20037;-65
2023/09/27 11:18:56;;;;;;;12.40;5.32;;;20.30;99.90;;;;;;4991142;28;20513;-65
2023/09/27 11:21:28;;;;;;;11.27;5.43;;;20.30;99.90;;;;;;4972381;28;20034;-65
2023/09/27 11:24:03;;;;;;;9.30;5.18;;;20.40;99.90;;;;;;4991662;28;20517;-65
2023/09/27 11:26:31;;;;;;;8.23;4.70;;;20.40;99.90;;;;;;4989206;28;20056;-65
2023/09/27 11:29:05;;;;;;;7.13;4.43;;;20.50;99.90;;;;;;4974989;28;20037;-65
2023/09/27 11:31:35;;;;;;;11.63;5.03;;;20.50;99.90;;;;;;4991137;28;20048;-65
2023/09/27 11:34:18;;;;;;;9.65;5.47;;;20.70;99.90;;;;;;4991134;28;20049;-65
2023/09/27 11:36:51;;;;;;;8.40;5.63;;;20.80;99.90;;;;;;4985392;28;20124;-65
2023/09/27 11:39:18;;;;;;;12.13;7.25;;;20.80;99.90;;;;;;4991246;28;20517;-65
2023/09/27 11:41:45;;;;;;;10.45;5.93;;;20.70;99.90;;;;;;5008738;28;20050;-65
2023/09/27 11:44:24;;;;;;;10.18;6.38;;;20.60;99.90;;;;;;5009048;28;20046;-65
2023/09/27 11:46:51;;;;;;;12.85;6.38;;;20.60;99.90;;;;;;4990787;28;20525;-65
2023/09/27 11:49:25;;;;;;;13.80;6.60;;;20.60;99.90;;;;;;4990667;28;20052;-65
2023/09/27 11:51:50;;;;;;;10.00;6.13;;;20.70;99.90;;;;;;4991140;28;20046;-65
2023/09/27 11:54:16;;;;;;;8.27;5.53;;;20.70;99.90;;;;;;4990654;28;20060;-65
2023/09/27 11:56:43;;;;;;;11.20;5.78;;;20.70;99.90;;;;;;5008700;28;20442;-65
2023/09/27 11:59:10;;;;;;;7.72;4.85;;;20.90;99.90;;;;;;4990662;28;20407;-65
2023/09/27 12:01:36;;;;;;;11.18;5.45;;;20.80;99.90;;;;;;4989974;28;20380;-65
2023/09/27 12:04:02;;;;;;;10.85;5.85;;;21.00;99.90;;;;;;4990441;28;20511;-65
2023/09/27 12:06:28;;;;;;;9.98;5.30;;;20.90;99.90;;;;;;4990510;28;20141;-65
2023/09/27 12:08:55;;;;;;;10.23;5.65;;;21.00;99.90;;;;;;4988522;28;20038;-65
2023/09/27 12:11:20;;;;;;;12.48;6.88;;;21.00;99.90;;;;;;5008503;28;20030;-66
2023/09/27 12:13:46;;;;;;;11.90;6.68;;;21.20;99.90;;;;;;5008206;28;20072;-65
2023/09/27 12:16:12;;;;;;;8.32;5.95;;;21.00;99.90;;;;;;5008271;28;20125;-65
2023/09/27 12:18:37;;;;;;;12.82;6.78;;;21.10;99.90;;;;;;4991135;28;20130;-65
2023/09/27 12:21:03;;;;;;;11.15;6.25;;;20.90;99.90;;;;;;4989256;28;20053;-65
2023/09/27 12:23:29;;;;;;;9.65;7.03;;;21.20;99.90;;;;;;4982978;28;20409;-66
2023/09/27 12:25:55;;;;;;;11.60;6.35;;;20.80;99.90;;;;;;4989935;28;20049;-65
2023/09/27 12:28:21;;;;;;;8.65;6.38;;;20.90;99.90;;;;;;4986867;28;20069;-65
2023/09/27 12:30:46;;;;;;;13.43;6.82;;;20.90;99.90;;;;;;5008243;28;20650;-65
2023/09/27 12:33:13;;;;;;;8.93;6.95;;;21.20;99.90;;;;;;5008124;28;20041;-66
2023/09/27 12:35:39;;;;;;;10.73;6.15;;;20.90;99.90;;;;;;5007628;28;20519;-65
2023/09/27 12:38:06;;;;;;;12.05;7.00;;;21.10;99.90;;;;;;5008041;28;20037;-65
2023/09/27 12:40:35;;;;;;;13.05;8.80;;;21.20;99.90;;;;;;5007788;28;20053;-65
2023/09/27 12:43:01;;;;;;;11.45;7.50;;;21.50;99.90;;;;;;4973524;28;20046;-65
2023/09/27 12:45:27;;;;;;;15.95;8.02;;;21.20;99.90;;;;;;4991479;28;20056;-65
2023/09/27 12:47:53;;;;;;;11.52;7.18;;;21.40;99.90;;;;;;5009619;28;20041;-66
2023/09/27 12:50:26;;;;;;;12.50;8.15;;;21.40;99.90;;;;;;4990798;28;20100;-65
2023/09/27 12:52:55;;;;;;;12.93;9.15;;;21.40;99.90;;;;;;5008756;28;20037;-65
2023/09/27 12:55:20;;;;;;;10.35;7.60;;;21.50;99.90;;;;;;5009376;28;20552;-66
2023/09/27 12:57:46;;;;;;;10.15;7.95;;;21.50;99.90;;;;;;4989139;28;20054;-65
2023/09/27 13:00:13;;;;;;;10.68;7.60;;;23.20;99.90;;;;;;4990334;28;20120;-67
2023/09/27 13:02:39;;;;;;;13.07;8.77;;;21.70;99.90;;;;;;4990292;28;20049;-66
2023/09/27 13:05:05;;;;;;;11.35;6.68;;;21.70;99.90;;;;;;4989814;28;20050;-66
2023/09/27 13:07:31;;;;;;;16.35;6.30;;;21.90;99.90;;;;;;4989824;28;20045;-65
2023/09/27 13:09:56;;;;;;;11.55;5.68;;;23.10;99.90;;;;;;4984249;28;20096;-66